createdAt,value
2018-02-15T00:00:00.319Z,0
2018-02-15T00:01:10.017Z,0
2018-02-15T00:02:19.962Z,0
2018-02-15T00:03:29.930Z,0
2018-02-15T00:04:39.627Z,0
2018-02-15T00:05:49.311Z,0
2018-02-15T00:06:59.259Z,0
2018-02-15T00:08:08.968Z,0
2018-02-15T00:09:18.915Z,0
2018-02-15T00:10:28.860Z,0
2018-02-15T00:11:38.553Z,0
2018-02-15T00:12:48.540Z,0
2018-02-15T00:13:58.230Z,0
2018-02-15T00:15:08.180Z,0
2018-02-15T00:16:18.120Z,0
2018-02-15T00:17:28.069Z,0
2018-02-15T00:18:38.021Z,0
2018-02-15T00:19:47.967Z,0
2018-02-15T00:20:57.910Z,0
2018-02-15T00:22:07.858Z,0
2018-02-15T00:23:17.805Z,0
2018-02-15T00:24:27.771Z,0
2018-02-15T00:25:37.732Z,0
2018-02-15T00:26:47.675Z,0
2018-02-15T00:27:57.647Z,0
2018-02-15T00:29:06.877Z,0
2018-02-15T00:30:16.573Z,0
2018-02-15T00:31:26.522Z,0
2018-02-15T00:32:35.709Z,0
2018-02-15T00:33:45.442Z,0
2018-02-15T00:34:55.404Z,0
2018-02-15T00:36:05.360Z,0
2018-02-15T00:37:15.316Z,0
2018-02-15T00:38:25.018Z,0
2018-02-15T00:39:34.443Z,0
2018-02-15T00:40:43.874Z,0
2018-02-15T00:41:53.840Z,0
2018-02-15T00:43:03.529Z,0
2018-02-15T00:44:13.212Z,0
2018-02-15T00:45:23.152Z,0
2018-02-15T00:46:33.098Z,0
2018-02-15T00:47:43.045Z,0
2018-02-15T00:48:53.002Z,0
2018-02-15T00:50:02.700Z,0
2018-02-15T00:51:12.653Z,0
2018-02-15T00:52:22.335Z,0
2018-02-15T00:53:32.293Z,0
2018-02-15T00:54:41.506Z,0
2018-02-15T00:55:51.193Z,0
2018-02-15T00:57:01.138Z,0
2018-02-15T00:58:10.829Z,0
2018-02-15T00:59:20.786Z,0
2018-02-15T01:00:30.523Z,0
2018-02-15T01:01:40.466Z,0
2018-02-15T01:02:50.173Z,0
2018-02-15T01:04:00.132Z,0
2018-02-15T01:05:10.074Z,0
2018-02-15T01:06:19.759Z,0
2018-02-15T01:07:29.454Z,0
2018-02-15T01:08:39.194Z,0
2018-02-15T01:09:49.145Z,0
2018-02-15T01:10:59.090Z,0
2018-02-15T01:12:08.776Z,0
2018-02-15T01:13:18.458Z,0
2018-02-15T01:14:28.398Z,0
2018-02-15T01:15:38.341Z,0
2018-02-15T01:16:48.301Z,0
2018-02-15T01:17:58.000Z,0
2018-02-15T01:19:07.953Z,0
2018-02-15T01:20:17.906Z,0
2018-02-15T01:21:27.865Z,0
2018-02-15T01:22:37.822Z,0
2018-02-15T01:23:47.505Z,0
2018-02-15T01:24:57.456Z,0
2018-02-15T01:26:07.414Z,0
2018-02-15T01:27:17.114Z,0
2018-02-15T01:28:27.089Z,0
2018-02-15T01:29:36.792Z,0
2018-02-15T01:30:46.492Z,0
2018-02-15T01:31:56.451Z,0
2018-02-15T01:33:06.401Z,0
2018-02-15T01:34:16.347Z,0
2018-02-15T01:35:26.291Z,0
2018-02-15T01:36:35.991Z,0
2018-02-15T01:37:45.939Z,0
2018-02-15T01:38:55.639Z,0
2018-02-15T01:40:05.329Z,0
2018-02-15T01:41:15.284Z,0
2018-02-15T01:42:25.231Z,0
2018-02-15T01:43:35.189Z,0
2018-02-15T01:44:44.882Z,0
2018-02-15T01:45:54.820Z,0
2018-02-15T01:47:04.516Z,0
2018-02-15T01:48:14.480Z,0
2018-02-15T01:49:24.176Z,0
2018-02-15T01:50:34.160Z,0
2018-02-15T01:51:44.120Z,0
2018-02-15T01:52:53.817Z,0
2018-02-15T01:54:03.765Z,0
2018-02-15T01:55:13.714Z,0
2018-02-15T01:56:23.671Z,0
2018-02-15T01:57:32.844Z,0
2018-02-15T01:58:42.531Z,0
2018-02-15T01:59:52.054Z,0
2018-02-15T02:01:01.743Z,0
2018-02-15T02:02:11.688Z,0
2018-02-15T02:03:21.634Z,0
2018-02-15T02:04:31.346Z,0
2018-02-15T02:05:41.302Z,0
2018-02-15T02:06:51.251Z,0
2018-02-15T02:08:00.682Z,0
2018-02-15T02:09:10.647Z,0
2018-02-15T02:10:20.606Z,0
2018-02-15T02:11:30.565Z,0
2018-02-15T02:12:39.766Z,0
2018-02-15T02:13:49.722Z,0
2018-02-15T02:14:59.410Z,0
2018-02-15T02:16:09.358Z,0
2018-02-15T02:17:19.303Z,0
2018-02-15T02:18:29.001Z,0
2018-02-15T02:19:38.698Z,0
2018-02-15T02:20:48.663Z,0
2018-02-15T02:21:58.608Z,0
2018-02-15T02:23:08.556Z,0
2018-02-15T02:24:18.513Z,0
2018-02-15T02:25:28.470Z,0
2018-02-15T02:26:38.152Z,0
2018-02-15T02:27:48.101Z,0
2018-02-15T02:28:57.291Z,0
2018-02-15T02:30:07.252Z,0
2018-02-15T02:31:16.950Z,0
2018-02-15T02:32:26.383Z,0
2018-02-15T02:33:36.331Z,0
2018-02-15T02:34:46.279Z,0
2018-02-15T02:35:56.221Z,0
2018-02-15T02:37:05.927Z,0
2018-02-15T02:38:15.895Z,0
2018-02-15T02:39:25.329Z,0
2018-02-15T02:40:35.017Z,0
2018-02-15T02:41:44.972Z,0
2018-02-15T02:42:54.941Z,0
2018-02-15T02:44:04.888Z,0
2018-02-15T02:45:14.850Z,0
2018-02-15T02:46:24.827Z,0
2018-02-15T02:47:34.530Z,0
2018-02-15T02:48:44.476Z,0
2018-02-15T02:49:54.177Z,0
2018-02-15T02:51:04.135Z,0
2018-02-15T02:52:14.102Z,0
2018-02-15T02:53:23.799Z,0
2018-02-15T02:54:33.762Z,0
2018-02-15T02:55:43.452Z,0
2018-02-15T02:56:53.147Z,0
2018-02-15T02:58:02.844Z,0
2018-02-15T02:59:12.791Z,0
2018-02-15T03:00:22.762Z,0
2018-02-15T03:01:32.711Z,0
2018-02-15T03:02:42.407Z,0
2018-02-15T03:03:52.357Z,0
2018-02-15T03:05:02.305Z,0
2018-02-15T03:06:12.270Z,0
2018-02-15T03:07:22.223Z,0
2018-02-15T03:08:32.166Z,0
2018-02-15T03:09:42.102Z,0
2018-02-15T03:10:51.791Z,0
2018-02-15T03:12:01.730Z,0
2018-02-15T03:13:11.678Z,0
2018-02-15T03:14:21.370Z,0
2018-02-15T03:15:31.314Z,0
2018-02-15T03:16:41.277Z,0
2018-02-15T03:17:51.219Z,0
2018-02-15T03:19:00.903Z,0
2018-02-15T03:20:10.853Z,0
2018-02-15T03:21:20.552Z,0
2018-02-15T03:22:30.513Z,0
2018-02-15T03:23:40.200Z,0
2018-02-15T03:24:50.144Z,0
2018-02-15T03:25:59.846Z,0
2018-02-15T03:27:09.803Z,0
2018-02-15T03:28:19.249Z,0
2018-02-15T03:29:29.197Z,0
2018-02-15T03:30:39.144Z,0
2018-02-15T03:31:48.837Z,0
2018-02-15T03:32:58.791Z,0
2018-02-15T03:34:08.757Z,0
2018-02-15T03:35:18.439Z,0
2018-02-15T03:36:28.133Z,0
2018-02-15T03:37:37.813Z,0
2018-02-15T03:38:47.806Z,0
2018-02-15T03:39:57.238Z,0
2018-02-15T03:41:07.195Z,0
2018-02-15T03:42:16.629Z,0
2018-02-15T03:43:26.323Z,0
2018-02-15T03:44:36.024Z,0
2018-02-15T03:45:45.970Z,0
2018-02-15T03:46:55.929Z,0
2018-02-15T03:48:05.872Z,0
2018-02-15T03:49:15.828Z,0
2018-02-15T03:50:25.792Z,0
2018-02-15T03:51:35.733Z,0
2018-02-15T03:52:45.438Z,0
2018-02-15T03:53:55.390Z,0
2018-02-15T03:55:04.847Z,0
2018-02-15T03:56:14.796Z,0
2018-02-15T03:57:24.732Z,0
2018-02-15T03:58:34.704Z,0
2018-02-15T03:59:44.656Z,0
2018-02-15T04:00:54.610Z,0
2018-02-15T04:02:03.786Z,0
2018-02-15T04:03:13.474Z,0
2018-02-15T04:04:23.423Z,0
2018-02-15T04:05:33.118Z,0
2018-02-15T04:06:42.813Z,0
2018-02-15T04:07:52.238Z,0
2018-02-15T04:09:02.182Z,0
2018-02-15T04:10:11.868Z,0
2018-02-15T04:11:21.816Z,0
2018-02-15T04:12:31.809Z,0
2018-02-15T04:13:41.762Z,0
2018-02-15T04:14:51.704Z,0
2018-02-15T04:16:01.662Z,0
2018-02-15T04:17:11.603Z,0
2018-02-15T04:18:21.036Z,0
2018-02-15T04:19:30.711Z,0
2018-02-15T04:20:40.663Z,0
2018-02-15T04:21:50.357Z,0
2018-02-15T04:23:00.305Z,0
2018-02-15T04:24:10.297Z,0
2018-02-15T04:25:19.985Z,0
2018-02-15T04:26:29.689Z,0
2018-02-15T04:27:39.379Z,0
2018-02-15T04:28:49.059Z,0
2018-02-15T04:29:58.746Z,0
2018-02-15T04:31:08.714Z,0
2018-02-15T04:32:18.395Z,0
2018-02-15T04:33:28.095Z,0
2018-02-15T04:34:37.783Z,0
2018-02-15T04:35:47.732Z,0
2018-02-15T04:36:57.157Z,0
2018-02-15T04:38:07.108Z,0
2018-02-15T04:39:16.812Z,0
2018-02-15T04:40:26.766Z,0
2018-02-15T04:41:36.458Z,0
2018-02-15T04:42:46.147Z,0
2018-02-15T04:43:55.829Z,0
2018-02-15T04:45:05.773Z,0
2018-02-15T04:46:15.738Z,0
2018-02-15T04:47:25.429Z,0
2018-02-15T04:48:35.385Z,0
2018-02-15T04:49:45.088Z,0
2018-02-15T04:50:54.767Z,0
2018-02-15T04:52:04.725Z,0
2018-02-15T04:53:14.682Z,0
2018-02-15T04:54:24.633Z,0
2018-02-15T04:55:34.583Z,0
2018-02-15T04:56:44.530Z,0
2018-02-15T04:57:54.478Z,0
2018-02-15T04:59:04.158Z,0
2018-02-15T05:00:13.859Z,0
2018-02-15T05:01:23.805Z,0
2018-02-15T05:02:33.753Z,0
2018-02-15T05:03:43.732Z,0
2018-02-15T05:04:53.692Z,0
2018-02-15T05:06:03.668Z,0
2018-02-15T05:07:13.610Z,0
2018-02-15T05:08:23.557Z,0
2018-02-15T05:09:33.005Z,0
2018-02-15T05:10:42.962Z,0
2018-02-15T05:11:52.942Z,0
2018-02-15T05:13:02.902Z,0
2018-02-15T05:14:12.860Z,0
2018-02-15T05:15:22.824Z,0
2018-02-15T05:16:32.775Z,0
2018-02-15T05:17:42.715Z,0
2018-02-15T05:18:52.671Z,0
2018-02-15T05:20:02.613Z,0
2018-02-15T05:21:12.581Z,0
2018-02-15T05:22:22.528Z,0
2018-02-15T05:23:32.484Z,0
2018-02-15T05:24:42.423Z,0
2018-02-15T05:25:52.370Z,0
2018-02-15T05:27:02.079Z,0
2018-02-15T05:28:12.018Z,0
2018-02-15T05:29:21.979Z,0
2018-02-15T05:30:31.666Z,0
2018-02-15T05:31:41.616Z,0
2018-02-15T05:32:51.311Z,0
2018-02-15T05:34:01.248Z,0
2018-02-15T05:35:11.199Z,0
2018-02-15T05:36:20.885Z,0
2018-02-15T05:37:30.841Z,0
2018-02-15T05:38:40.795Z,0
2018-02-15T05:39:50.739Z,0
2018-02-15T05:41:00.799Z,0
2018-02-15T05:42:10.738Z,0
2018-02-15T05:43:20.678Z,0
2018-02-15T05:44:30.361Z,0
2018-02-15T05:45:40.324Z,0
2018-02-15T05:46:50.265Z,0
2018-02-15T05:47:59.971Z,0
2018-02-15T05:49:09.929Z,4
2018-02-15T05:50:19.630Z,0
2018-02-15T05:51:29.079Z,4
2018-02-15T05:52:38.787Z,4
2018-02-15T05:53:48.226Z,4
2018-02-15T05:54:58.168Z,4
2018-02-15T05:56:08.127Z,4
2018-02-15T05:57:18.079Z,4
2018-02-15T05:58:27.766Z,8
2018-02-15T05:59:37.447Z,12
2018-02-15T06:00:47.400Z,12
2018-02-15T06:01:57.364Z,12
2018-02-15T06:03:07.323Z,12
2018-02-15T06:04:17.018Z,16
2018-02-15T06:05:26.451Z,20
2018-02-15T06:06:36.399Z,24
2018-02-15T06:07:46.375Z,28
2018-02-15T06:08:56.314Z,32
2018-02-15T06:10:06.254Z,36
2018-02-15T06:11:16.192Z,40
2018-02-15T06:12:25.624Z,60
2018-02-15T06:13:35.572Z,76
2018-02-15T06:14:45.512Z,84
2018-02-15T06:15:55.204Z,92
2018-02-15T06:17:05.147Z,100
2018-02-15T06:18:15.090Z,112
2018-02-15T06:19:24.778Z,124
2018-02-15T06:20:34.466Z,136
2018-02-15T06:21:44.409Z,152
2018-02-15T06:22:54.114Z,164
2018-02-15T06:24:04.059Z,192
2018-02-15T06:25:13.749Z,220
2018-02-15T06:26:23.710Z,248
2018-02-15T06:27:33.398Z,252
2018-02-15T06:28:43.354Z,268
2018-02-15T06:29:53.092Z,272
2018-02-15T06:31:03.049Z,280
2018-02-15T06:32:12.741Z,308
2018-02-15T06:33:22.430Z,364
2018-02-15T06:34:32.476Z,412
2018-02-15T06:35:42.427Z,508
2018-02-15T06:36:52.384Z,504
2018-02-15T06:38:02.372Z,532
2018-02-15T06:39:11.798Z,600
2018-02-15T06:40:21.754Z,648
2018-02-15T06:41:31.450Z,788
2018-02-15T06:42:41.464Z,848
2018-02-15T06:43:51.407Z,888
2018-02-15T06:45:00.889Z,932
2018-02-15T06:46:10.839Z,992
2018-02-15T06:47:20.793Z,1148
2018-02-15T06:48:30.751Z,1100
2018-02-15T06:49:40.708Z,1096
2018-02-15T06:50:50.672Z,1028
2018-02-15T06:52:00.615Z,1072
2018-02-15T06:53:10.605Z,1088
2018-02-15T06:54:20.558Z,1100
2018-02-15T06:55:30.265Z,1008
2018-02-15T06:56:40.210Z,996
2018-02-15T06:57:49.942Z,1036
2018-02-15T06:58:59.886Z,1060
2018-02-15T07:00:09.616Z,1044
2018-02-15T07:01:19.564Z,1036
2018-02-15T07:02:29.528Z,1012
2018-02-15T07:03:39.477Z,952
2018-02-15T07:04:49.433Z,1036
2018-02-15T07:05:59.397Z,1008
2018-02-15T07:07:09.351Z,1012
2018-02-15T07:08:18.522Z,1284
2018-02-15T07:09:28.496Z,1472
2018-02-15T07:10:38.205Z,1452
2018-02-15T07:11:47.910Z,1600
2018-02-15T07:12:57.622Z,1668
2018-02-15T07:14:07.603Z,1620
2018-02-15T07:15:17.675Z,1640
2018-02-15T07:16:27.624Z,1820
2018-02-15T07:17:37.566Z,1992
2018-02-15T07:18:47.530Z,1976
2018-02-15T07:19:56.732Z,1864
2018-02-15T07:21:06.679Z,1916
2018-02-15T07:22:16.399Z,2220
2018-02-15T07:23:26.088Z,2104
2018-02-15T07:24:35.788Z,2080
2018-02-15T07:25:45.734Z,2360
2018-02-15T07:26:55.440Z,2612
2018-02-15T07:28:05.133Z,2620
2018-02-15T07:29:14.832Z,2880
2018-02-15T07:30:24.830Z,3344
2018-02-15T07:31:34.793Z,3240
2018-02-15T07:32:44.499Z,3792
2018-02-15T07:33:53.946Z,4260
2018-02-15T07:35:03.904Z,4424
2018-02-15T07:36:13.861Z,5300
2018-02-15T07:37:23.568Z,5912
2018-02-15T07:38:33.536Z,6236
2018-02-15T07:39:43.501Z,5776
2018-02-15T07:40:53.185Z,5800
2018-02-15T07:42:02.875Z,6096
2018-02-15T07:43:12.825Z,6956
2018-02-15T07:44:22.777Z,7700
2018-02-15T07:45:32.468Z,7492
2018-02-15T07:46:42.421Z,6872
2018-02-15T07:47:52.390Z,6648
2018-02-15T07:49:02.366Z,7200
2018-02-15T07:50:12.323Z,7800
2018-02-15T07:51:22.278Z,6440
2018-02-15T07:52:31.980Z,6376
2018-02-15T07:53:41.939Z,6472
2018-02-15T07:54:51.642Z,6784
2018-02-15T07:56:01.610Z,7212
2018-02-15T07:57:11.578Z,7528
2018-02-15T07:58:21.541Z,7216
2018-02-15T07:59:31.497Z,7728
2018-02-15T08:00:41.452Z,9260
2018-02-15T08:01:51.431Z,9572
2018-02-15T08:03:01.402Z,10364
2018-02-15T08:04:11.382Z,11544
2018-02-15T08:05:21.328Z,11396
2018-02-15T08:06:31.291Z,11200
2018-02-15T08:07:41.252Z,9532
2018-02-15T08:08:51.226Z,9056
2018-02-15T08:10:01.219Z,9464
2018-02-15T08:11:11.183Z,8416
2018-02-15T08:12:21.145Z,9784
2018-02-15T08:13:30.846Z,9416
2018-02-15T08:14:40.024Z,10400
2018-02-15T08:15:49.475Z,10312
2018-02-15T08:16:59.424Z,10520
2018-02-15T08:18:09.386Z,10444
2018-02-15T08:19:19.368Z,9892
2018-02-15T08:20:29.323Z,10176
2018-02-15T08:21:39.291Z,11024
2018-02-15T08:22:49.261Z,13464
2018-02-15T08:23:59.287Z,13328
2018-02-15T08:25:08.997Z,13664
2018-02-15T08:26:18.716Z,13684
2018-02-15T08:27:28.672Z,12600
2018-02-15T08:28:38.645Z,12624
2018-02-15T08:29:48.597Z,14108
2018-02-15T08:30:58.553Z,13636
2018-02-15T08:32:08.536Z,14312
2018-02-15T08:33:18.489Z,13104
2018-02-15T08:34:28.449Z,13040
2018-02-15T08:35:38.438Z,13016
2018-02-15T08:36:47.894Z,14812
2018-02-15T08:37:58.002Z,14128
2018-02-15T08:39:07.983Z,13804
2018-02-15T08:40:17.952Z,12568
2018-02-15T08:41:27.927Z,12448
2018-02-15T08:42:37.894Z,12608
2018-02-15T08:43:47.859Z,12708
2018-02-15T08:44:57.848Z,13412
2018-02-15T08:46:07.840Z,12976
2018-02-15T08:47:17.541Z,12260
2018-02-15T08:48:27.251Z,12588
2018-02-15T08:49:37.231Z,12380
2018-02-15T08:50:47.192Z,13236
2018-02-15T08:51:56.893Z,12764
2018-02-15T08:53:06.848Z,12268
2018-02-15T08:54:16.814Z,11652
2018-02-15T08:55:26.804Z,12872
2018-02-15T08:56:36.766Z,14440
2018-02-15T08:57:46.477Z,12464
2018-02-15T08:58:56.173Z,12236
2018-02-15T09:00:06.256Z,12316
2018-02-15T09:01:16.208Z,15248
2018-02-15T09:02:25.676Z,17920
2018-02-15T09:03:35.646Z,17568
2018-02-15T09:04:45.085Z,15688
2018-02-15T09:05:55.040Z,18528
2018-02-15T09:07:04.772Z,22656
2018-02-15T09:08:14.718Z,28928
2018-02-15T09:09:24.675Z,31936
2018-02-15T09:10:34.712Z,27168
2018-02-15T09:11:44.689Z,30944
2018-02-15T09:12:54.653Z,21696
2018-02-15T09:14:04.632Z,19904
2018-02-15T09:15:14.612Z,21920
2018-02-15T09:16:24.580Z,29472
2018-02-15T09:17:34.289Z,26528
2018-02-15T09:18:44.249Z,25696
2018-02-15T09:19:54.210Z,27520
2018-02-15T09:21:04.202Z,22560
2018-02-15T09:22:14.213Z,17920
2018-02-15T09:23:24.195Z,27040
2018-02-15T09:24:33.929Z,22112
2018-02-15T09:25:43.917Z,31168
2018-02-15T09:26:53.633Z,43200
2018-02-15T09:28:03.672Z,33888
2018-02-15T09:29:13.945Z,35936
2018-02-15T09:30:23.907Z,53632
2018-02-15T09:31:33.910Z,47968
2018-02-15T09:32:43.902Z,25632
2018-02-15T09:33:53.860Z,30496
2018-02-15T09:35:03.595Z,44320
2018-02-15T09:36:13.570Z,23552
2018-02-15T09:37:23.562Z,25056
2018-02-15T09:38:33.557Z,34848
2018-02-15T09:39:43.278Z,51072
2018-02-15T09:40:53.285Z,47776
2018-02-15T09:42:03.005Z,25440
2018-02-15T09:43:12.972Z,47456
2018-02-15T09:44:22.674Z,25312
2018-02-15T09:45:32.641Z,48384
2018-02-15T09:46:42.352Z,40480
2018-02-15T09:47:52.050Z,54400
2018-02-15T09:49:01.796Z,43392
2018-02-15T09:50:11.810Z,43648
2018-02-15T09:51:21.526Z,57216
2018-02-15T09:52:31.608Z,56576
2018-02-15T09:53:41.324Z,53920
2018-02-15T09:54:51.324Z,58944
2018-02-15T09:56:01.342Z,60096
2018-02-15T09:57:11.087Z,56352
2018-02-15T09:58:20.846Z,57952
2018-02-15T09:59:30.308Z,59904
2018-02-15T10:00:40.046Z,33440
2018-02-15T10:01:50.009Z,58848
2018-02-15T10:02:59.732Z,64256
2018-02-15T10:04:09.452Z,61664
2018-02-15T10:05:18.920Z,62016
2018-02-15T10:06:28.870Z,60480
2018-02-15T10:07:38.868Z,51872
2018-02-15T10:08:48.827Z,41888
2018-02-15T10:09:58.799Z,57856
2018-02-15T10:11:08.842Z,67104
2018-02-15T10:12:18.823Z,65344
2018-02-15T10:13:28.559Z,66752
2018-02-15T10:14:38.786Z,59936
2018-02-15T10:15:48.759Z,60064
2018-02-15T10:16:58.208Z,68672
2018-02-15T10:18:08.173Z,74816
2018-02-15T10:19:17.875Z,68128
2018-02-15T10:20:27.856Z,73280
2018-02-15T10:21:37.823Z,74208
2018-02-15T10:22:47.580Z,68448
2018-02-15T10:23:57.386Z,74272
2018-02-15T10:25:07.368Z,68032
2018-02-15T10:26:17.085Z,73952
2018-02-15T10:27:27.072Z,52800
2018-02-15T10:28:37.065Z,43552
2018-02-15T10:29:46.776Z,50016
2018-02-15T10:30:56.739Z,50848
2018-02-15T10:32:06.981Z,49216
2018-02-15T10:33:17.001Z,56512
2018-02-15T10:34:26.985Z,73280
2018-02-15T10:35:36.466Z,79200
2018-02-15T10:36:46.514Z,81984
2018-02-15T10:37:56.479Z,66976
2018-02-15T10:39:06.185Z,80576
2018-02-15T10:40:15.913Z,60000
2018-02-15T10:41:25.889Z,54368
2018-02-15T10:42:35.857Z,38944
2018-02-15T10:43:45.555Z,32896
2018-02-15T10:44:55.571Z,51840
2018-02-15T10:46:05.311Z,74656
2018-02-15T10:47:15.268Z,73504
2018-02-15T10:48:25.233Z,77184
2018-02-15T10:49:35.194Z,76640
2018-02-15T10:50:44.898Z,81728
2018-02-15T10:51:54.626Z,82560
2018-02-15T10:53:04.604Z,84512
2018-02-15T10:54:14.323Z,83872
2018-02-15T10:55:24.047Z,81600
2018-02-15T10:56:34.140Z,82048
2018-02-15T10:57:43.876Z,74432
2018-02-15T10:58:53.835Z,81504
2018-02-15T11:00:03.837Z,89216
2018-02-15T11:01:13.794Z,52704
2018-02-15T11:02:23.908Z,52832
2018-02-15T11:03:33.872Z,71616
2018-02-15T11:04:43.912Z,74272
2018-02-15T11:05:54.011Z,81216
2018-02-15T11:07:03.997Z,45696
2018-02-15T11:08:14.046Z,70016
2018-02-15T11:09:24.042Z,78528
2018-02-15T11:10:34.052Z,97824
2018-02-15T11:11:44.030Z,89248
2018-02-15T11:12:54.025Z,95584
2018-02-15T11:14:04.004Z,86944
2018-02-15T11:15:13.973Z,93568
2018-02-15T11:16:23.674Z,101280
2018-02-15T11:17:33.664Z,97312
2018-02-15T11:18:43.913Z,93728
2018-02-15T11:19:53.899Z,78720
2018-02-15T11:21:03.963Z,83680
2018-02-15T11:22:13.921Z,89792
2018-02-15T11:23:23.869Z,95200
2018-02-15T11:24:33.839Z,93600
2018-02-15T11:25:43.946Z,57216
2018-02-15T11:26:53.980Z,55392
2018-02-15T11:28:03.966Z,62080
2018-02-15T11:29:13.672Z,61024
2018-02-15T11:30:23.391Z,85696
2018-02-15T11:31:33.356Z,72512
2018-02-15T11:32:43.183Z,87712
2018-02-15T11:33:53.188Z,65408
2018-02-15T11:35:03.172Z,80704
2018-02-15T11:36:13.149Z,52576
2018-02-15T11:37:23.118Z,45696
2018-02-15T11:38:33.086Z,54656
2018-02-15T11:39:43.051Z,50688
2018-02-15T11:40:53.027Z,41312
2018-02-15T11:42:02.732Z,38784
2018-02-15T11:43:12.691Z,36800
2018-02-15T11:44:22.400Z,39776
2018-02-15T11:45:32.428Z,40960
2018-02-15T11:46:42.403Z,38944
2018-02-15T11:47:52.101Z,42720
2018-02-15T11:49:02.074Z,40384
2018-02-15T11:50:12.041Z,39936
2018-02-15T11:51:21.769Z,43232
2018-02-15T11:52:31.757Z,45632
2018-02-15T11:53:41.728Z,40608
2018-02-15T11:54:51.496Z,36672
2018-02-15T11:56:01.471Z,38784
2018-02-15T11:57:11.189Z,43200
2018-02-15T11:58:21.150Z,54656
2018-02-15T11:59:31.123Z,49664
2018-02-15T12:00:41.128Z,48832
2018-02-15T12:01:51.089Z,64000
2018-02-15T12:03:01.065Z,55744
2018-02-15T12:04:11.034Z,51136
2018-02-15T12:05:21.066Z,61280
2018-02-15T12:06:31.053Z,60000
2018-02-15T12:07:40.763Z,70496
2018-02-15T12:08:50.496Z,84576
2018-02-15T12:10:00.496Z,93120
2018-02-15T12:11:10.457Z,87872
2018-02-15T12:12:19.896Z,88832
2018-02-15T12:13:29.384Z,79456
2018-02-15T12:14:39.114Z,72512
2018-02-15T12:15:49.088Z,89120
2018-02-15T12:16:58.784Z,76992
2018-02-15T12:18:08.826Z,72288
2018-02-15T12:19:18.805Z,52064
2018-02-15T12:20:28.766Z,67616
2018-02-15T12:21:38.267Z,65824
2018-02-15T12:22:48.249Z,56320
2018-02-15T12:23:58.021Z,61536
2018-02-15T12:25:07.989Z,72832
2018-02-15T12:26:18.180Z,52736
2018-02-15T12:27:28.155Z,55936
2018-02-15T12:28:38.120Z,46080
2018-02-15T12:29:48.104Z,41312
2018-02-15T12:30:58.063Z,52864
2018-02-15T12:32:07.767Z,57504
2018-02-15T12:33:17.480Z,64896
2018-02-15T12:34:27.459Z,62112
2018-02-15T12:35:37.464Z,75744
2018-02-15T12:36:47.446Z,70688
2018-02-15T12:37:57.153Z,58144
2018-02-15T12:39:06.864Z,59392
2018-02-15T12:40:16.850Z,64288
2018-02-15T12:41:26.806Z,65152
2018-02-15T12:42:36.257Z,47008
2018-02-15T12:43:46.249Z,47936
2018-02-15T12:44:55.970Z,42592
2018-02-15T12:46:05.921Z,39648
2018-02-15T12:47:15.942Z,37664
2018-02-15T12:48:25.646Z,37984
2018-02-15T12:49:35.346Z,45312
2018-02-15T12:50:45.314Z,36992
2018-02-15T12:51:55.073Z,37216
2018-02-15T12:53:04.577Z,32096
2018-02-15T12:54:14.046Z,31552
2018-02-15T12:55:24.021Z,33472
2018-02-15T12:56:33.995Z,26784
2018-02-15T12:57:43.701Z,25472
2018-02-15T12:58:53.670Z,25920
2018-02-15T13:00:03.715Z,26272
2018-02-15T13:01:13.411Z,27136
2018-02-15T13:02:23.385Z,29120
2018-02-15T13:03:33.355Z,31296
2018-02-15T13:04:43.338Z,29504
2018-02-15T13:05:53.312Z,29376
2018-02-15T13:07:03.269Z,28096
2018-02-15T13:08:13.277Z,27232
2018-02-15T13:09:22.996Z,26016
2018-02-15T13:10:32.974Z,24704
2018-02-15T13:11:42.940Z,23520
2018-02-15T13:12:52.910Z,22848
2018-02-15T13:14:02.603Z,22400
2018-02-15T13:15:12.033Z,21696
2018-02-15T13:16:22.013Z,21024
2018-02-15T13:17:31.735Z,20736
2018-02-15T13:18:41.482Z,20800
2018-02-15T13:19:51.443Z,20832
2018-02-15T13:21:01.466Z,20576
2018-02-15T13:22:11.434Z,19904
2018-02-15T13:23:21.184Z,20192
2018-02-15T13:24:31.230Z,19168
2018-02-15T13:25:41.183Z,18528
2018-02-15T13:26:51.143Z,17696
2018-02-15T13:28:00.849Z,17280
2018-02-15T13:29:10.842Z,16668
2018-02-15T13:30:20.558Z,16112
2018-02-15T13:31:30.537Z,15184
2018-02-15T13:32:40.237Z,13972
2018-02-15T13:33:50.210Z,12812
2018-02-15T13:34:59.913Z,11848
2018-02-15T13:36:09.892Z,11120
2018-02-15T13:37:19.640Z,10776
2018-02-15T13:38:29.384Z,10832
2018-02-15T13:39:39.448Z,11028
2018-02-15T13:40:49.150Z,11084
2018-02-15T13:41:59.148Z,11060
2018-02-15T13:43:08.857Z,11064
2018-02-15T13:44:18.820Z,10988
2018-02-15T13:45:28.790Z,10720
2018-02-15T13:46:38.521Z,10420
2018-02-15T13:47:48.484Z,10144
2018-02-15T13:48:58.445Z,9820
2018-02-15T13:50:08.412Z,9568
2018-02-15T13:51:18.383Z,9428
2018-02-15T13:52:28.085Z,9316
2018-02-15T13:53:38.080Z,9208
2018-02-15T13:54:48.046Z,9052
2018-02-15T13:55:58.009Z,8844
2018-02-15T13:57:07.993Z,8696
2018-02-15T13:58:17.971Z,8680
2018-02-15T13:59:27.951Z,8768
2018-02-15T14:00:37.913Z,8808
2018-02-15T14:01:47.880Z,8632
2018-02-15T14:02:57.859Z,8420
2018-02-15T14:04:07.833Z,8400
2018-02-15T14:05:17.532Z,8496
2018-02-15T14:06:27.489Z,8408
2018-02-15T14:07:37.445Z,8024
2018-02-15T14:08:47.414Z,7516
2018-02-15T14:09:57.382Z,7164
2018-02-15T14:11:07.090Z,7032
2018-02-15T14:12:17.055Z,6988
2018-02-15T14:13:26.763Z,6888
2018-02-15T14:14:36.726Z,6836
2018-02-15T14:15:46.687Z,6780
2018-02-15T14:16:56.393Z,6520
2018-02-15T14:18:06.354Z,6056
2018-02-15T14:19:16.365Z,5564
2018-02-15T14:20:25.794Z,5248
2018-02-15T14:21:35.749Z,5112
2018-02-15T14:22:45.720Z,5092
2018-02-15T14:23:55.169Z,5140
2018-02-15T14:25:05.141Z,5252
2018-02-15T14:26:15.109Z,5356
2018-02-15T14:27:25.093Z,5424
2018-02-15T14:28:35.061Z,5492
2018-02-15T14:29:44.767Z,5564
2018-02-15T14:30:54.467Z,5560
2018-02-15T14:32:04.415Z,5356
2018-02-15T14:33:13.614Z,4996
2018-02-15T14:34:23.581Z,4616
2018-02-15T14:35:33.266Z,4348
2018-02-15T14:36:42.416Z,4192
2018-02-15T14:37:52.444Z,4080
2018-02-15T14:39:02.148Z,3988
2018-02-15T14:40:12.116Z,3896
2018-02-15T14:41:22.101Z,3800
2018-02-15T14:42:32.053Z,3760
2018-02-15T14:43:41.746Z,3832
2018-02-15T14:44:51.732Z,4060
2018-02-15T14:46:01.686Z,4432
2018-02-15T14:47:11.858Z,4848
2018-02-15T14:48:21.304Z,5100
2018-02-15T14:49:31.262Z,5004
2018-02-15T14:50:41.221Z,4608
2018-02-15T14:51:51.213Z,4120
2018-02-15T14:53:01.203Z,3660
2018-02-15T14:54:11.176Z,3316
2018-02-15T14:55:21.143Z,3120
2018-02-15T14:56:31.099Z,3080
2018-02-15T14:57:40.806Z,3164
2018-02-15T14:58:50.785Z,3336
2018-02-15T15:00:00.751Z,3576
2018-02-15T15:01:10.459Z,3848
2018-02-15T15:02:20.412Z,4060
2018-02-15T15:03:30.372Z,4056
2018-02-15T15:04:40.073Z,3900
2018-02-15T15:05:50.031Z,3788
2018-02-15T15:06:59.767Z,3720
2018-02-15T15:08:09.736Z,3600
2018-02-15T15:09:19.186Z,3428
2018-02-15T15:10:29.153Z,3260
2018-02-15T15:11:39.108Z,3184
2018-02-15T15:12:49.073Z,3224
2018-02-15T15:13:59.043Z,3304
2018-02-15T15:15:08.750Z,3368
2018-02-15T15:16:18.448Z,3432
2018-02-15T15:17:28.191Z,3500
2018-02-15T15:18:38.156Z,3504
2018-02-15T15:19:47.889Z,3392
2018-02-15T15:20:57.584Z,3184
2018-02-15T15:22:07.552Z,3024
2018-02-15T15:23:17.502Z,2932
2018-02-15T15:24:27.474Z,2840
2018-02-15T15:25:37.523Z,2660
2018-02-15T15:26:47.482Z,2428
2018-02-15T15:27:57.456Z,2220
2018-02-15T15:29:07.455Z,2056
2018-02-15T15:30:17.431Z,1864
2018-02-15T15:31:27.398Z,1612
2018-02-15T15:32:37.352Z,1404
2018-02-15T15:33:47.330Z,1284
2018-02-15T15:34:57.304Z,1200
2018-02-15T15:36:07.005Z,1140
2018-02-15T15:37:16.989Z,1076
2018-02-15T15:38:26.949Z,1004
2018-02-15T15:39:36.911Z,952
2018-02-15T15:40:46.886Z,948
2018-02-15T15:41:57.087Z,976
2018-02-15T15:43:07.060Z,992
2018-02-15T15:44:17.033Z,992
2018-02-15T15:45:27.022Z,1024
2018-02-15T15:46:36.991Z,1072
2018-02-15T15:47:46.721Z,1124
2018-02-15T15:48:56.679Z,1160
2018-02-15T15:50:06.643Z,1164
2018-02-15T15:51:16.611Z,1140
2018-02-15T15:52:26.573Z,1096
2018-02-15T15:53:36.548Z,1032
2018-02-15T15:54:46.329Z,956
2018-02-15T15:55:56.292Z,864